CSAV Brasilia — A8VK7 — position and weather

sailwx.info

Track history (hours):
 
Tides and Currents Weather Stations Pressure Air Temp Water Temp Dewpoint Dewpoint Depression Visibility Wind Speed Wind Dir Waves Ship Positions

CSAV Brasilia

Last reported at 2014-Oct-20 16:32 UTC. Time now 2014-Oct-25 07:01 UTC.
Position N 40°18' W 030°53'.

Length 294 m; draft 11.8 m.

Type: Cargo ship. MMSI: 636092017.

Date/timePositionNaut miles runAvg speedWind from/ knotsBaromVisibWave heightAir tempDewpointWater temp
2014-Oct-20 16:32N 40°18' W 030°53'2215.5
2014-Oct-20 15:05N 40°27' W 030°26'815.5
2014-Oct-20 14:33N 40°30' W 030°16'1715.7
2014-Oct-20 13:29N 40°36' W 029°56'  
2014-Oct-16 20:33N 49°54' W 003°15'1715.3
2014-Oct-16 19:24N 49°59' W 002°49'1416.0
2014-Oct-16 18:33N 50°03' W 002°29'1815.8
2014-Oct-16 17:24N 50°09' W 002°02'8714.4
2014-Oct-16 11:21N 50°32' E 000°09'1215.2
2014-Oct-16 10:33N 50°36' E 000°27'1515.5
2014-Oct-16 09:33N 50°44' E 000°48'2015.5
2014-Oct-16 08:15N 50°56' E 001°13'1014.9
2014-Oct-16 07:33N 51°03' E 001°26'1414.0
2014-Oct-16 06:33N 51°12' E 001°43'1414.3
2014-Oct-16 05:34N 51°24' E 001°55'1514.7
2014-Oct-16 04:34N 51°35' E 002°10'1515.3
2014-Oct-16 03:33N 51°47' E 002°26'6816.3
2014-Oct-15 23:23N 52°40' E 003°34'1515.5
2014-Oct-15 22:26N 52°52' E 003°49'1315.2
2014-Oct-15 21:33N 53°01' E 004°05'1515.1
2014-Oct-15 20:33N 53°11' E 004°25'1615.2
2014-Oct-15 19:32N 53°25' E 004°35'1515.4
2014-Oct-15 18:34N 53°33' E 004°56'1717.2
2014-Oct-15 17:34N 53°38' E 005°24'1716.8
2014-Oct-15 16:34N 53°44' E 005°50'1716.3
2014-Oct-15 15:29N 53°50' E 006°18'4515.4
2014-Oct-15 12:34N 54°01' E 007°33'1514.8
2014-Oct-15 11:33N 54°02' E 007°58'1413.5
2014-Oct-15 10:33N 53°59' E 008°21'1514.9
2014-Oct-15 09:34N 53°53' E 008°43'1515.1
2014-Oct-15 08:33N 53°53' E 009°09'1313.5
2014-Oct-15 07:34N 53°44' E 009°26'1211.7
2014-Oct-15 06:33N 53°35' E 009°38'9 9.4
2014-Oct-15 05:34N 53°33' E 009°53'2 1.5
2014-Oct-15 04:32N 53°32' E 009°55'0 0.0
2014-Oct-15 03:32N 53°32' E 009°55'0 0.0
2014-Oct-15 02:32N 53°32' E 009°55'0 0.0
2014-Oct-15 01:32N 53°32' E 009°55'0 0.0
2014-Oct-15 00:33N 53°32' E 009°55'0 0.0
2014-Oct-14 23:32N 53°32' E 009°55'0 0.0
2014-Oct-14 22:32N 53°32' E 009°55'0 0.0
2014-Oct-14 21:32N 53°32' E 009°55'0 0.0
2014-Oct-14 20:32N 53°32' E 009°55'0 0.0
2014-Oct-14 19:31N 53°32' E 009°55'0 0.0
2014-Oct-14 18:32N 53°32' E 009°55'0 0.0
2014-Oct-14 17:22N 53°32' E 009°55'0 0.0
2014-Oct-14 16:32N 53°32' E 009°55'0 0.0
2014-Oct-14 15:32N 53°32' E 009°55'0 0.0
2014-Oct-14 14:32N 53°32' E 009°55'0 0.0
2014-Oct-14 13:33N 53°32' E 009°55'3 3.3
2014-Oct-14 12:33N 53°33' E 009°50'8 7.9
2014-Oct-14 11:34N 53°35' E 009°37'1110.6
2014-Oct-14 10:32N 53°44' E 009°27'1312.4
2014-Oct-14 09:31N 53°53' E 009°12'1010.8
2014-Oct-14 08:34N 53°51' E 008°54'1111.5
2014-Oct-14 07:33N 53°57' E 008°38'1515.4
2014-Oct-14 06:33N 53°60' E 008°12'1414.2
2014-Oct-14 05:34N 53°55' E 007°50'1414.5
2014-Oct-14 04:34N 53°46' E 008°10'1616.3
2014-Oct-14 03:34N 53°36' E 008°31'2 1.7
2014-Oct-14 02:33N 53°34' E 008°32'0 0.0
2014-Oct-14 01:33N 53°34' E 008°32'0 0.0
2014-Oct-14 00:33N 53°34' E 008°32'0 0.0
2014-Oct-13 23:33N 53°34' E 008°32'0 0.0
2014-Oct-13 22:33N 53°34' E 008°32'0 0.0
2014-Oct-13 21:32N 53°34' E 008°32'0 0.0
2014-Oct-13 20:32N 53°34' E 008°32'0 0.0
2014-Oct-13 19:32N 53°34' E 008°32'0 0.0
2014-Oct-13 18:32N 53°34' E 008°32'0 0.0
2014-Oct-13 17:32N 53°34' E 008°32'0 0.0
2014-Oct-13 16:32N 53°34' E 008°32'0 0.0
2014-Oct-13 15:32N 53°34' E 008°32'0 0.0
2014-Oct-13 14:32N 53°34' E 008°32'0 0.0
2014-Oct-13 13:32N 53°34' E 008°32'0 0.0
2014-Oct-13 12:32N 53°34' E 008°32'0 0.0
2014-Oct-13 11:32N 53°34' E 008°32'0 0.0
2014-Oct-13 10:33N 53°34' E 008°32'0 0.0
2014-Oct-13 09:32N 53°34' E 008°32'0 0.0
2014-Oct-13 08:32N 53°34' E 008°32'0 0.0
2014-Oct-13 07:31N 53°34' E 008°32'0 0.0
2014-Oct-13 06:31N 53°34' E 008°32'0 0.0
2014-Oct-13 05:31N 53°34' E 008°32'2 2.0
2014-Oct-13 04:33N 53°36' E 008°30'1312.7
2014-Oct-13 03:33N 53°44' E 008°14'1313.4
2014-Oct-13 02:33N 53°52' E 007°55'1312.9
2014-Oct-13 01:33N 53°55' E 007°34'1514.3
2014-Oct-13 00:32N 53°52' E 007°10'2014.4
2014-Oct-12 23:07N 53°47' E 006°36'1414.5
2014-Oct-12 22:10N 53°44' E 006°14'914.6
2014-Oct-12 21:33N 53°41' E 005°59'1414.4
2014-Oct-12 20:33N 53°36' E 005°36'1414.4
2014-Oct-12 19:33N 53°32' E 005°13'1414.5
2014-Oct-12 18:33N 53°26' E 004°51'1414.0
2014-Oct-12 17:33N 53°16' E 004°35'1514.5
2014-Oct-12 16:33N 53°03' E 004°23'1514.6
2014-Oct-12 15:33N 52°50' E 004°12'1413.5
2014-Oct-12 14:33N 52°40' E 003°57'1313.2
2014-Oct-12 13:33N 52°30' E 003°42'1312.8
2014-Oct-12 12:33N 52°21' E 003°28'6011.9
2014-Oct-12 07:33N 51°51' E 002°04'1111.3
2014-Oct-12 06:33N 51°49' E 001°46'8 7.5
2014-Oct-12 05:34N 51°49' E 001°33'1818.3
2014-Oct-12 04:34N 51°35' E 001°15'1717.2
2014-Oct-12 03:34N 51°29' E 000°48'1414.3
2014-Oct-12 02:33N 51°27' E 000°25'3 3.5
2014-Oct-12 01:34N 51°28' E 000°20'0 0.0
2014-Oct-12 00:34N 51°28' E 000°20'0 0.0
2014-Oct-11 23:34N 51°28' E 000°20'0 0.0
2014-Oct-11 22:34N 51°28' E 000°20'0 0.0
2014-Oct-11 21:33N 51°28' E 000°20'0 0.0
2014-Oct-11 20:34N 51°28' E 000°20'0 0.0
2014-Oct-11 19:34N 51°28' E 000°20'0 0.0
2014-Oct-11 18:34N 51°28' E 000°20'0 0.0
2014-Oct-11 17:34N 51°28' E 000°20'0 0.0
2014-Oct-11 16:34N 51°28' E 000°20'0 0.0
2014-Oct-11 15:34N 51°28' E 000°20'0 0.0
2014-Oct-11 14:34N 51°28' E 000°20'0 0.0
2014-Oct-11 13:34N 51°28' E 000°20'0 0.0
2014-Oct-11 12:31N 51°28' E 000°20'0 0.0
2014-Oct-11 11:33N 51°28' E 000°20'0 0.0
2014-Oct-11 10:33N 51°28' E 000°20'0 0.0
2014-Oct-11 09:33N 51°28' E 000°20'0 0.0
2014-Oct-11 08:33N 51°28' E 000°20'0 0.0
2014-Oct-11 07:33N 51°28' E 000°20'0 0.0
2014-Oct-11 06:33N 51°28' E 000°20'0 0.0
2014-Oct-11 05:33N 51°28' E 000°20'0 0.0
2014-Oct-11 04:32N 51°28' E 000°20'0 0.2
2014-Oct-11 03:34N 51°27' E 000°20'5 4.5
2014-Oct-11 02:33N 51°28' E 000°27'7 7.4
2014-Oct-11 01:33N 51°30' E 000°39'7 7.1
2014-Oct-11 00:34N 51°29' E 000°50'1717.0
2014-Oct-10 23:34N 51°35' E 001°16'1717.2
2014-Oct-10 22:34N 51°48' E 001°34'7 6.9
2014-Oct-10 21:31N 51°53' E 001°41'0 0.1
2014-Oct-10 20:31N 51°53' E 001°41'0 0.4
2014-Oct-10 19:31N 51°54' E 001°41'0 0.0
2014-Oct-10 18:31N 51°54' E 001°41'0 0.0
2014-Oct-10 17:31N 51°54' E 001°41'  
Track history (hours):
 
Tides and Currents Weather Stations Pressure Air Temp Water Temp Dewpoint Dewpoint Depression Visibility Wind Speed Wind Dir Waves Ship Positions

CSAV Brasilia

Last reported at 2014-Oct-20 16:32 UTC. Time now 2014-Oct-25 07:01 UTC.
Position N 40°18' W 030°53'.

Length 294 m; draft 11.8 m.

Type: Cargo ship. MMSI: 636092017.

Date/timePositionNaut miles runAvg speedWind from/ knotsBaromVisibWave heightAir tempDewpointWater temp
2014-Oct-20 16:32N 40°18' W 030°53'2215.5
2014-Oct-20 15:05N 40°27' W 030°26'815.5
2014-Oct-20 14:33N 40°30' W 030°16'1715.7
2014-Oct-20 13:29N 40°36' W 029°56'  
2014-Oct-16 20:33N 49°54' W 003°15'1715.3
2014-Oct-16 19:24N 49°59' W 002°49'1416.0
2014-Oct-16 18:33N 50°03' W 002°29'1815.8
2014-Oct-16 17:24N 50°09' W 002°02'8714.4
2014-Oct-16 11:21N 50°32' E 000°09'1215.2
2014-Oct-16 10:33N 50°36' E 000°27'1515.5
2014-Oct-16 09:33N 50°44' E 000°48'2015.5
2014-Oct-16 08:15N 50°56' E 001°13'1014.9
2014-Oct-16 07:33N 51°03' E 001°26'1414.0
2014-Oct-16 06:33N 51°12' E 001°43'1414.3
2014-Oct-16 05:34N 51°24' E 001°55'1514.7
2014-Oct-16 04:34N 51°35' E 002°10'1515.3
2014-Oct-16 03:33N 51°47' E 002°26'6816.3
2014-Oct-15 23:23N 52°40' E 003°34'1515.5
2014-Oct-15 22:26N 52°52' E 003°49'1315.2
2014-Oct-15 21:33N 53°01' E 004°05'1515.1
2014-Oct-15 20:33N 53°11' E 004°25'1615.2
2014-Oct-15 19:32N 53°25' E 004°35'1515.4
2014-Oct-15 18:34N 53°33' E 004°56'1717.2
2014-Oct-15 17:34N 53°38' E 005°24'1716.8
2014-Oct-15 16:34N 53°44' E 005°50'1716.3
2014-Oct-15 15:29N 53°50' E 006°18'4515.4
2014-Oct-15 12:34N 54°01' E 007°33'1514.8
2014-Oct-15 11:33N 54°02' E 007°58'1413.5
2014-Oct-15 10:33N 53°59' E 008°21'1514.9
2014-Oct-15 09:34N 53°53' E 008°43'1515.1
2014-Oct-15 08:33N 53°53' E 009°09'1313.5
2014-Oct-15 07:34N 53°44' E 009°26'1211.7
2014-Oct-15 06:33N 53°35' E 009°38'9 9.4
2014-Oct-15 05:34N 53°33' E 009°53'2 1.5
2014-Oct-15 04:32N 53°32' E 009°55'0 0.0
2014-Oct-15 03:32N 53°32' E 009°55'0 0.0
2014-Oct-15 02:32N 53°32' E 009°55'0 0.0
2014-Oct-15 01:32N 53°32' E 009°55'0 0.0
2014-Oct-15 00:33N 53°32' E 009°55'0 0.0
2014-Oct-14 23:32N 53°32' E 009°55'0 0.0
2014-Oct-14 22:32N 53°32' E 009°55'0 0.0
2014-Oct-14 21:32N 53°32' E 009°55'0 0.0
2014-Oct-14 20:32N 53°32' E 009°55'0 0.0
2014-Oct-14 19:31N 53°32' E 009°55'0 0.0
2014-Oct-14 18:32N 53°32' E 009°55'0 0.0
2014-Oct-14 17:22N 53°32' E 009°55'0 0.0
2014-Oct-14 16:32N 53°32' E 009°55'0 0.0
2014-Oct-14 15:32N 53°32' E 009°55'0 0.0
2014-Oct-14 14:32N 53°32' E 009°55'0 0.0
2014-Oct-14 13:33N 53°32' E 009°55'3 3.3
2014-Oct-14 12:33N 53°33' E 009°50'8 7.9
2014-Oct-14 11:34N 53°35' E 009°37'1110.6
2014-Oct-14 10:32N 53°44' E 009°27'1312.4
2014-Oct-14 09:31N 53°53' E 009°12'1010.8
2014-Oct-14 08:34N 53°51' E 008°54'1111.5
2014-Oct-14 07:33N 53°57' E 008°38'1515.4
2014-Oct-14 06:33N 53°60' E 008°12'1414.2
2014-Oct-14 05:34N 53°55' E 007°50'1414.5
2014-Oct-14 04:34N 53°46' E 008°10'1616.3
2014-Oct-14 03:34N 53°36' E 008°31'2 1.7
2014-Oct-14 02:33N 53°34' E 008°32'0 0.0
2014-Oct-14 01:33N 53°34' E 008°32'0 0.0
2014-Oct-14 00:33N 53°34' E 008°32'0 0.0
2014-Oct-13 23:33N 53°34' E 008°32'0 0.0
2014-Oct-13 22:33N 53°34' E 008°32'0 0.0
2014-Oct-13 21:32N 53°34' E 008°32'0 0.0
2014-Oct-13 20:32N 53°34' E 008°32'0 0.0
2014-Oct-13 19:32N 53°34' E 008°32'0 0.0
2014-Oct-13 18:32N 53°34' E 008°32'0 0.0
2014-Oct-13 17:32N 53°34' E 008°32'0 0.0
2014-Oct-13 16:32N 53°34' E 008°32'0 0.0
2014-Oct-13 15:32N 53°34' E 008°32'0 0.0
2014-Oct-13 14:32N 53°34' E 008°32'0 0.0
2014-Oct-13 13:32N 53°34' E 008°32'0 0.0
2014-Oct-13 12:32N 53°34' E 008°32'0 0.0
2014-Oct-13 11:32N 53°34' E 008°32'0 0.0
2014-Oct-13 10:33N 53°34' E 008°32'0 0.0
2014-Oct-13 09:32N 53°34' E 008°32'0 0.0
2014-Oct-13 08:32N 53°34' E 008°32'0 0.0
2014-Oct-13 07:31N 53°34' E 008°32'0 0.0
2014-Oct-13 06:31N 53°34' E 008°32'0 0.0
2014-Oct-13 05:31N 53°34' E 008°32'2 2.0
2014-Oct-13 04:33N 53°36' E 008°30'1312.7
2014-Oct-13 03:33N 53°44' E 008°14'1313.4
2014-Oct-13 02:33N 53°52' E 007°55'1312.9
2014-Oct-13 01:33N 53°55' E 007°34'1514.3
2014-Oct-13 00:32N 53°52' E 007°10'2014.4
2014-Oct-12 23:07N 53°47' E 006°36'1414.5
2014-Oct-12 22:10N 53°44' E 006°14'914.6
2014-Oct-12 21:33N 53°41' E 005°59'1414.4
2014-Oct-12 20:33N 53°36' E 005°36'1414.4
2014-Oct-12 19:33N 53°32' E 005°13'1414.5
2014-Oct-12 18:33N 53°26' E 004°51'1414.0
2014-Oct-12 17:33N 53°16' E 004°35'1514.5
2014-Oct-12 16:33N 53°03' E 004°23'1514.6
2014-Oct-12 15:33N 52°50' E 004°12'1413.5
2014-Oct-12 14:33N 52°40' E 003°57'1313.2
2014-Oct-12 13:33N 52°30' E 003°42'1312.8
2014-Oct-12 12:33N 52°21' E 003°28'6011.9
2014-Oct-12 07:33N 51°51' E 002°04'1111.3
2014-Oct-12 06:33N 51°49' E 001°46'8 7.5
2014-Oct-12 05:34N 51°49' E 001°33'1818.3
2014-Oct-12 04:34N 51°35' E 001°15'1717.2
2014-Oct-12 03:34N 51°29' E 000°48'1414.3
2014-Oct-12 02:33N 51°27' E 000°25'3 3.5
2014-Oct-12 01:34N 51°28' E 000°20'0 0.0
2014-Oct-12 00:34N 51°28' E 000°20'0 0.0
2014-Oct-11 23:34N 51°28' E 000°20'0 0.0
2014-Oct-11 22:34N 51°28' E 000°20'0 0.0
2014-Oct-11 21:33N 51°28' E 000°20'0 0.0
2014-Oct-11 20:34N 51°28' E 000°20'0 0.0
2014-Oct-11 19:34N 51°28' E 000°20'0 0.0
2014-Oct-11 18:34N 51°28' E 000°20'0 0.0
2014-Oct-11 17:34N 51°28' E 000°20'0 0.0
2014-Oct-11 16:34N 51°28' E 000°20'0 0.0
2014-Oct-11 15:34N 51°28' E 000°20'0 0.0
2014-Oct-11 14:34N 51°28' E 000°20'0 0.0
2014-Oct-11 13:34N 51°28' E 000°20'0 0.0
2014-Oct-11 12:31N 51°28' E 000°20'0 0.0
2014-Oct-11 11:33N 51°28' E 000°20'0 0.0
2014-Oct-11 10:33N 51°28' E 000°20'0 0.0
2014-Oct-11 09:33N 51°28' E 000°20'0 0.0
2014-Oct-11 08:33N 51°28' E 000°20'0 0.0
2014-Oct-11 07:33N 51°28' E 000°20'0 0.0
2014-Oct-11 06:33N 51°28' E 000°20'0 0.0
2014-Oct-11 05:33N 51°28' E 000°20'0 0.0
2014-Oct-11 04:32N 51°28' E 000°20'0 0.2
2014-Oct-11 03:34N 51°27' E 000°20'5 4.5
2014-Oct-11 02:33N 51°28' E 000°27'7 7.4
2014-Oct-11 01:33N 51°30' E 000°39'7 7.1
2014-Oct-11 00:34N 51°29' E 000°50'1717.0
2014-Oct-10 23:34N 51°35' E 001°16'1717.2
2014-Oct-10 22:34N 51°48' E 001°34'7 6.9
2014-Oct-10 21:31N 51°53' E 001°41'0 0.1
2014-Oct-10 20:31N 51°53' E 001°41'0 0.4
2014-Oct-10 19:31N 51°54' E 001°41'0 0.0
2014-Oct-10 18:31N 51°54' E 001°41'0 0.0
2014-Oct-10 17:31N 51°54' E 001°41'  

Dump ship's entire track history